createdAt,value
2018-07-17T00:00:12.208Z,244.00
2018-07-17T00:01:12.252Z,232.00
2018-07-17T00:02:12.287Z,224.00
2018-07-17T00:03:12.269Z,244.00
2018-07-17T00:04:12.302Z,264.00
2018-07-17T00:05:12.318Z,268.00
2018-07-17T00:06:12.337Z,244.00
2018-07-17T00:07:12.378Z,224.00
2018-07-17T00:08:12.381Z,212.00
2018-07-17T00:09:12.414Z,216.00
2018-07-17T00:10:12.420Z,192.00
2018-07-17T00:11:12.409Z,172.00
2018-07-17T00:12:12.422Z,164.00
2018-07-17T00:13:12.487Z,152.00
2018-07-17T00:14:12.505Z,152.00
2018-07-17T00:15:12.525Z,156.00
2018-07-17T00:16:12.520Z,156.00
2018-07-17T00:17:12.548Z,164.00
2018-07-17T00:18:12.531Z,184.00
2018-07-17T00:19:12.597Z,232.00
2018-07-17T00:20:12.577Z,280.00
2018-07-17T00:21:12.618Z,316.00
2018-07-17T00:22:12.651Z,340.00
2018-07-17T00:23:12.622Z,348.00
2018-07-17T00:24:12.640Z,312.00
2018-07-17T00:25:12.691Z,276.00
2018-07-17T00:26:12.768Z,252.00
2018-07-17T00:27:12.718Z,244.00
2018-07-17T00:28:12.758Z,236.00
2018-07-17T00:29:12.761Z,244.00
2018-07-17T00:30:12.778Z,272.00
2018-07-17T00:31:12.813Z,304.00
2018-07-17T00:32:12.830Z,336.00
2018-07-17T00:33:12.833Z,360.00
2018-07-17T00:34:12.851Z,368.00
2018-07-17T00:35:12.836Z,368.00
2018-07-17T00:36:12.857Z,364.00
2018-07-17T00:37:12.922Z,376.00
2018-07-17T00:38:12.881Z,400.00
2018-07-17T00:39:12.944Z,436.00
2018-07-17T00:40:12.976Z,444.00
2018-07-17T00:41:12.974Z,424.00
2018-07-17T00:42:12.954Z,408.00
2018-07-17T00:43:13.008Z,412.00
2018-07-17T00:44:13.048Z,420.00
2018-07-17T00:45:13.068Z,428.00
2018-07-17T00:46:13.042Z,396.00
2018-07-17T00:47:13.106Z,476.00
2018-07-17T00:48:13.071Z,568.00
2018-07-17T00:49:13.097Z,624.00
2018-07-17T00:50:13.139Z,584.00
2018-07-17T00:51:13.153Z,552.00
2018-07-17T00:52:13.148Z,548.00
2018-07-17T00:53:13.212Z,528.00
2018-07-17T00:54:13.186Z,460.00
2018-07-17T00:55:13.203Z,372.00
2018-07-17T00:56:13.266Z,288.00
2018-07-17T00:57:13.284Z,248.00
2018-07-17T00:58:13.254Z,232.00
2018-07-17T00:59:13.279Z,240.00
2018-07-17T01:00:13.326Z,220.00
2018-07-17T01:01:13.366Z,220.00
2018-07-17T01:02:13.332Z,256.00
2018-07-17T01:03:13.350Z,304.00
2018-07-17T01:04:13.411Z,340.00
2018-07-17T01:05:13.430Z,392.00
2018-07-17T01:06:13.415Z,424.00
2018-07-17T01:07:13.451Z,452.00
2018-07-17T01:08:13.440Z,432.00
2018-07-17T01:09:13.504Z,400.00
2018-07-17T01:10:13.524Z,388.00
2018-07-17T01:11:13.528Z,368.00
2018-07-17T01:12:13.537Z,344.00
2018-07-17T01:13:13.582Z,336.00
2018-07-17T01:14:13.554Z,352.00
2018-07-17T01:15:13.570Z,384.00
2018-07-17T01:16:13.635Z,396.00
2018-07-17T01:17:13.652Z,364.00
2018-07-17T01:18:13.635Z,320.00
2018-07-17T01:19:13.643Z,296.00
2018-07-17T01:20:13.660Z,276.00
2018-07-17T01:21:13.677Z,264.00
2018-07-17T01:22:13.709Z,264.00
2018-07-17T01:23:13.747Z,280.00
2018-07-17T01:24:13.783Z,296.00
2018-07-17T01:25:13.771Z,320.00
2018-07-17T01:26:13.761Z,344.00
2018-07-17T01:27:13.838Z,356.00
2018-07-17T01:28:13.854Z,352.00
2018-07-17T01:29:13.874Z,368.00
2018-07-17T01:30:13.879Z,376.00
2018-07-17T01:31:13.864Z,396.00
2018-07-17T01:32:13.929Z,424.00
2018-07-17T01:33:13.947Z,440.00
2018-07-17T01:34:13.944Z,428.00
2018-07-17T01:35:13.947Z,420.00
2018-07-17T01:36:14.001Z,408.00
2018-07-17T01:37:14.003Z,392.00
2018-07-17T01:38:14.002Z,388.00
2018-07-17T01:39:14.011Z,380.00
2018-07-17T01:40:14.076Z,384.00
2018-07-17T01:41:14.081Z,388.00
2018-07-17T01:42:14.066Z,392.00
2018-07-17T01:43:14.134Z,400.00
2018-07-17T01:44:14.149Z,416.00
2018-07-17T01:45:14.163Z,424.00
2018-07-17T01:46:14.127Z,412.00
2018-07-17T01:47:14.190Z,392.00
2018-07-17T01:48:14.222Z,384.00
2018-07-17T01:49:14.205Z,392.00
2018-07-17T01:50:14.227Z,412.00
2018-07-17T01:51:14.262Z,440.00
2018-07-17T01:52:14.296Z,488.00
2018-07-17T01:53:14.315Z,572.00
2018-07-17T01:54:14.283Z,584.00
2018-07-17T01:55:14.305Z,536.00
2018-07-17T01:56:14.353Z,536.00
2018-07-17T01:57:14.388Z,580.00
2018-07-17T01:58:14.406Z,668.00
2018-07-17T01:59:14.380Z,720.00
2018-07-17T02:00:14.420Z,724.00
2018-07-17T02:01:14.463Z,732.00
2018-07-17T02:02:14.457Z,728.00
2018-07-17T02:03:14.476Z,716.00
2018-07-17T02:04:14.470Z,708.00
2018-07-17T02:05:14.545Z,708.00
2018-07-17T02:06:14.556Z,704.00
2018-07-17T02:07:14.527Z,716.00
2018-07-17T02:08:14.572Z,784.00
2018-07-17T02:09:14.552Z,824.00
2018-07-17T02:10:14.584Z,904.00
2018-07-17T02:11:14.649Z,988.00
2018-07-17T02:12:14.666Z,1072.00
2018-07-17T02:13:14.635Z,1096.00
2018-07-17T02:14:14.667Z,1052.00
2018-07-17T02:15:14.724Z,1052.00
2018-07-17T02:16:14.693Z,1040.00
2018-07-17T02:17:14.712Z,1004.00
2018-07-17T02:18:14.742Z,1012.00
2018-07-17T02:19:14.797Z,1024.00
2018-07-17T02:20:14.865Z,1040.00
2018-07-17T02:21:14.810Z,1052.00
2018-07-17T02:22:14.794Z,1076.00
2018-07-17T02:23:14.872Z,1100.00
2018-07-17T02:24:14.894Z,1088.00
2018-07-17T02:25:14.893Z,1100.00
2018-07-17T02:26:14.928Z,1152.00
2018-07-17T02:27:14.901Z,1196.00
2018-07-17T02:28:14.929Z,1148.00
2018-07-17T02:29:14.940Z,1060.00
2018-07-17T02:30:15.004Z,1060.00
2018-07-17T02:31:14.964Z,1064.00
2018-07-17T02:32:15.029Z,996.00
2018-07-17T02:33:15.059Z,944.00
2018-07-17T02:34:15.080Z,912.00
2018-07-17T02:35:15.051Z,964.00
2018-07-17T02:36:15.070Z,1048.00
2018-07-17T02:37:15.116Z,1204.00
2018-07-17T02:38:15.154Z,1304.00
2018-07-17T02:39:15.195Z,1480.00
2018-07-17T02:40:15.146Z,1484.00
2018-07-17T02:41:15.165Z,1468.00
2018-07-17T02:42:15.243Z,1516.00
2018-07-17T02:43:15.258Z,1560.00
2018-07-17T02:44:15.219Z,1576.00
2018-07-17T02:45:15.266Z,1632.00
2018-07-17T02:46:15.292Z,1696.00
2018-07-17T02:47:15.280Z,1756.00
2018-07-17T02:48:15.299Z,1744.00
2018-07-17T02:49:15.304Z,1672.00
2018-07-17T02:50:15.360Z,1732.00
2018-07-17T02:51:15.357Z,1800.00
2018-07-17T02:52:15.424Z,1784.00
2018-07-17T02:53:15.391Z,1748.00
2018-07-17T02:54:15.445Z,1756.00
2018-07-17T02:55:15.443Z,1768.00
2018-07-17T02:56:15.448Z,1712.00
2018-07-17T02:57:15.501Z,1632.00
2018-07-17T02:58:15.539Z,1540.00
2018-07-17T02:59:15.557Z,1372.00
2018-07-17T03:00:15.526Z,1168.00
2018-07-17T03:01:15.581Z,1068.00
2018-07-17T03:02:15.556Z,1080.00
2018-07-17T03:03:15.580Z,1140.00
2018-07-17T03:04:15.606Z,1104.00
2018-07-17T03:05:15.672Z,1100.00
2018-07-17T03:06:15.679Z,1080.00
2018-07-17T03:07:15.665Z,1020.00
2018-07-17T03:08:15.672Z,1056.00
2018-07-17T03:09:15.749Z,1084.00
2018-07-17T03:10:15.771Z,1072.00
2018-07-17T03:11:15.753Z,984.00
2018-07-17T03:12:15.770Z,792.00
2018-07-17T03:13:15.782Z,700.00
2018-07-17T03:14:15.835Z,696.00
2018-07-17T03:15:15.868Z,700.00
2018-07-17T03:16:15.885Z,756.00
2018-07-17T03:17:15.885Z,840.00
2018-07-17T03:18:15.909Z,840.00
2018-07-17T03:19:15.954Z,780.00
2018-07-17T03:20:15.942Z,752.00
2018-07-17T03:21:15.968Z,696.00
2018-07-17T03:22:15.988Z,612.00
2018-07-17T03:23:15.985Z,604.00
2018-07-17T03:24:16.020Z,596.00
2018-07-17T03:25:16.068Z,612.00
2018-07-17T03:26:16.058Z,700.00
2018-07-17T03:27:16.054Z,844.00
2018-07-17T03:28:16.127Z,820.00
2018-07-17T03:29:16.139Z,816.00
2018-07-17T03:30:16.159Z,768.00
2018-07-17T03:31:16.156Z,752.00
2018-07-17T03:32:16.150Z,764.00
2018-07-17T03:33:16.199Z,792.00
2018-07-17T03:34:16.237Z,840.00
2018-07-17T03:35:16.210Z,840.00
2018-07-17T03:36:16.228Z,836.00
2018-07-17T03:37:16.277Z,780.00
2018-07-17T03:38:16.268Z,816.00
2018-07-17T03:39:16.286Z,804.00
2018-07-17T03:40:16.315Z,756.00
2018-07-17T03:41:16.371Z,724.00
2018-07-17T03:42:16.346Z,668.00
2018-07-17T03:43:16.365Z,652.00
2018-07-17T03:44:16.431Z,672.00
2018-07-17T03:45:16.430Z,728.00
2018-07-17T03:46:16.434Z,816.00
2018-07-17T03:47:16.490Z,832.00
2018-07-17T03:48:16.463Z,772.00
2018-07-17T03:49:16.483Z,728.00
2018-07-17T03:50:16.525Z,740.00
2018-07-17T03:51:16.569Z,804.00
2018-07-17T03:52:16.587Z,756.00
2018-07-17T03:53:16.560Z,668.00
2018-07-17T03:54:16.583Z,648.00
2018-07-17T03:55:16.677Z,620.00
2018-07-17T03:56:16.666Z,612.00
2018-07-17T03:57:16.685Z,656.00
2018-07-17T03:58:16.687Z,688.00
2018-07-17T03:59:16.706Z,668.00
2018-07-17T04:00:16.708Z,648.00
2018-07-17T04:01:16.749Z,604.00
2018-07-17T04:02:16.784Z,552.00
2018-07-17T04:03:16.755Z,588.00
2018-07-17T04:04:16.821Z,624.00
2018-07-17T04:05:16.843Z,644.00
2018-07-17T04:06:16.865Z,688.00
2018-07-17T04:07:16.873Z,756.00
2018-07-17T04:08:16.855Z,908.00
2018-07-17T04:09:16.928Z,948.00
2018-07-17T04:10:16.893Z,956.00
2018-07-17T04:11:16.937Z,1068.00
2018-07-17T04:12:17.001Z,1264.00
2018-07-17T04:13:17.006Z,1280.00
2018-07-17T04:14:16.975Z,1264.00
2018-07-17T04:15:17.019Z,1144.00
2018-07-17T04:16:17.059Z,1080.00
2018-07-17T04:17:17.033Z,1024.00
2018-07-17T04:18:17.041Z,1000.00
2018-07-17T04:19:17.118Z,984.00
2018-07-17T04:20:17.139Z,924.00
2018-07-17T04:21:17.140Z,1012.00
2018-07-17T04:22:17.160Z,1100.00
2018-07-17T04:23:17.151Z,1076.00
2018-07-17T04:24:17.215Z,1036.00
2018-07-17T04:25:17.218Z,1020.00
2018-07-17T04:26:17.257Z,1076.00
2018-07-17T04:27:17.230Z,1204.00
2018-07-17T04:28:17.258Z,1320.00
2018-07-17T04:29:17.269Z,1428.00
2018-07-17T04:30:17.334Z,1508.00
2018-07-17T04:31:17.355Z,1752.00
2018-07-17T04:32:17.360Z,1856.00
2018-07-17T04:33:17.398Z,1808.00
2018-07-17T04:34:17.413Z,1776.00
2018-07-17T04:35:17.445Z,1936.00
2018-07-17T04:36:17.431Z,1888.00
2018-07-17T04:37:17.475Z,1764.00
2018-07-17T04:38:17.536Z,1824.00
2018-07-17T04:39:17.463Z,1944.00
2018-07-17T04:40:17.503Z,1912.00
2018-07-17T04:41:17.535Z,1792.00
2018-07-17T04:42:17.527Z,1752.00
2018-07-17T04:43:17.597Z,1784.00
2018-07-17T04:44:17.696Z,1932.00
2018-07-17T04:45:17.587Z,1848.00
2018-07-17T04:46:17.654Z,1820.00
2018-07-17T04:47:17.651Z,1724.00
2018-07-17T04:48:17.670Z,1728.00
2018-07-17T04:49:17.681Z,1528.00
2018-07-17T04:50:17.685Z,1392.00
2018-07-17T04:51:17.708Z,1336.00
2018-07-17T04:52:17.773Z,1260.00
2018-07-17T04:53:17.794Z,1052.00
2018-07-17T04:54:17.769Z,860.00
2018-07-17T04:55:17.776Z,768.00
2018-07-17T04:56:17.799Z,744.00
2018-07-17T04:57:17.878Z,692.00
2018-07-17T04:58:17.837Z,624.00
2018-07-17T04:59:17.857Z,568.00
2018-07-17T05:00:17.935Z,548.00
2018-07-17T05:01:17.906Z,544.00
2018-07-17T05:02:17.958Z,636.00
2018-07-17T05:03:17.979Z,624.00
2018-07-17T05:04:17.996Z,652.00
2018-07-17T05:05:18.039Z,688.00
2018-07-17T05:06:18.021Z,700.00
2018-07-17T05:07:18.037Z,716.00
2018-07-17T05:08:18.097Z,764.00
2018-07-17T05:09:18.071Z,724.00
2018-07-17T05:10:18.123Z,616.00
2018-07-17T05:11:18.099Z,560.00
2018-07-17T05:12:18.179Z,644.00
2018-07-17T05:13:18.201Z,652.00
2018-07-17T05:14:18.205Z,656.00
2018-07-17T05:15:18.196Z,596.00
2018-07-17T05:16:18.302Z,556.00
2018-07-17T05:17:18.243Z,540.00
2018-07-17T05:18:18.249Z,552.00
2018-07-17T05:19:18.299Z,596.00
2018-07-17T05:20:18.372Z,732.00
2018-07-17T05:21:18.359Z,908.00
2018-07-17T05:22:18.356Z,976.00
2018-07-17T05:23:18.376Z,932.00
2018-07-17T05:24:18.426Z,876.00
2018-07-17T05:25:18.440Z,904.00
2018-07-17T05:26:18.440Z,840.00
2018-07-17T05:27:18.462Z,640.00
2018-07-17T05:28:18.499Z,544.00
2018-07-17T05:29:18.470Z,488.00
2018-07-17T05:30:18.493Z,436.00
2018-07-17T05:31:18.573Z,432.00
2018-07-17T05:32:18.580Z,404.00
2018-07-17T05:33:18.600Z,388.00
2018-07-17T05:34:18.610Z,404.00
2018-07-17T05:35:18.748Z,480.00
2018-07-17T05:36:18.717Z,572.00
2018-07-17T05:37:18.684Z,608.00
2018-07-17T05:38:18.691Z,592.00
2018-07-17T05:39:18.665Z,564.00
2018-07-17T05:40:18.695Z,488.00
2018-07-17T05:41:18.762Z,480.00
2018-07-17T05:42:18.746Z,432.00
2018-07-17T05:43:18.757Z,376.00
2018-07-17T05:44:18.827Z,348.00
2018-07-17T05:45:18.843Z,320.00
2018-07-17T05:46:18.907Z,296.00
2018-07-17T05:47:18.864Z,304.00
2018-07-17T05:48:18.856Z,344.00
2018-07-17T05:49:18.927Z,392.00
2018-07-17T05:50:18.931Z,424.00
2018-07-17T05:51:18.922Z,472.00
2018-07-17T05:52:18.937Z,540.00
2018-07-17T05:53:19.003Z,532.00
2018-07-17T05:54:18.975Z,504.00
2018-07-17T05:55:19.024Z,472.00
2018-07-17T05:56:19.062Z,640.00
2018-07-17T05:57:19.035Z,972.00
2018-07-17T05:58:19.089Z,1244.00
2018-07-17T05:59:19.076Z,1456.00
2018-07-17T06:00:19.141Z,1576.00
2018-07-17T06:01:19.148Z,1648.00
2018-07-17T06:02:19.168Z,1868.00
2018-07-17T06:03:19.153Z,2332.00
2018-07-17T06:04:19.220Z,2448.00
2018-07-17T06:05:19.203Z,2556.00
2018-07-17T06:06:19.222Z,2496.00
2018-07-17T06:07:19.279Z,2684.00
2018-07-17T06:08:19.297Z,3184.00
2018-07-17T06:09:19.317Z,2988.00
2018-07-17T06:10:19.318Z,2840.00
2018-07-17T06:11:19.321Z,2700.00
2018-07-17T06:12:19.375Z,2764.00
2018-07-17T06:13:19.396Z,3124.00
2018-07-17T06:14:19.404Z,3312.00
2018-07-17T06:15:19.412Z,3160.00
2018-07-17T06:16:19.454Z,2332.00
2018-07-17T06:17:19.476Z,2452.00
2018-07-17T06:18:19.471Z,2532.00
2018-07-17T06:19:19.491Z,2468.00
2018-07-17T06:20:19.477Z,2296.00
2018-07-17T06:21:19.553Z,1960.00
2018-07-17T06:22:19.573Z,1752.00
2018-07-17T06:23:19.574Z,1480.00
2018-07-17T06:24:19.566Z,1204.00
2018-07-17T06:25:19.634Z,1020.00
2018-07-17T06:26:19.639Z,1184.00
2018-07-17T06:27:19.628Z,1348.00
2018-07-17T06:28:19.645Z,1196.00
2018-07-17T06:29:19.676Z,1116.00
2018-07-17T06:30:19.732Z,1372.00
2018-07-17T06:31:19.734Z,1216.00
2018-07-17T06:32:19.771Z,1108.00
2018-07-17T06:33:19.774Z,932.00
2018-07-17T06:34:19.778Z,708.00
2018-07-17T06:35:19.785Z,508.00
2018-07-17T06:36:19.833Z,380.00
2018-07-17T06:37:19.870Z,320.00
2018-07-17T06:38:19.876Z,376.00
2018-07-17T06:39:19.852Z,408.00
2018-07-17T06:40:19.930Z,412.00
2018-07-17T06:41:19.935Z,480.00
2018-07-17T06:42:19.910Z,580.00
2018-07-17T06:43:19.930Z,652.00
2018-07-17T06:44:20.009Z,732.00
2018-07-17T06:45:20.027Z,896.00
2018-07-17T06:46:20.031Z,1236.00
2018-07-17T06:47:20.051Z,1372.00
2018-07-17T06:48:20.066Z,1564.00
2018-07-17T06:49:20.070Z,1912.00
2018-07-17T06:50:20.204Z,2048.00
2018-07-17T06:51:20.101Z,2488.00
2018-07-17T06:52:20.148Z,2476.00
2018-07-17T06:53:20.185Z,2680.00
2018-07-17T06:54:20.159Z,2660.00
2018-07-17T06:55:20.168Z,2608.00
2018-07-17T06:56:20.244Z,2568.00
2018-07-17T06:57:20.261Z,2572.00
2018-07-17T06:58:20.237Z,2688.00
2018-07-17T06:59:20.285Z,2504.00
2018-07-17T07:00:20.325Z,2856.00
2018-07-17T07:01:20.297Z,3088.00
2018-07-17T07:02:20.363Z,2420.00
2018-07-17T07:03:20.385Z,2048.00
2018-07-17T07:04:20.403Z,1780.00
2018-07-17T07:05:20.474Z,1420.00
2018-07-17T07:06:20.383Z,1112.00
2018-07-17T07:07:20.464Z,768.00
2018-07-17T07:08:20.460Z,512.00
2018-07-17T07:09:20.468Z,340.00
2018-07-17T07:10:20.521Z,264.00
2018-07-17T07:11:20.600Z,196.00
2018-07-17T07:12:20.526Z,180.00
2018-07-17T07:13:20.584Z,140.00
2018-07-17T07:14:20.569Z,120.00
2018-07-17T07:15:20.577Z,172.00
2018-07-17T07:16:20.606Z,224.00
2018-07-17T07:17:20.662Z,172.00
2018-07-17T07:18:20.683Z,104.00
2018-07-17T07:19:20.642Z,84.00
2018-07-17T07:20:20.706Z,200.00
2018-07-17T07:21:20.695Z,292.00
2018-07-17T07:22:20.760Z,344.00
2018-07-17T07:23:20.751Z,336.00
2018-07-17T07:24:20.754Z,344.00
2018-07-17T07:25:20.797Z,304.00
2018-07-17T07:26:20.825Z,320.00
2018-07-17T07:27:20.857Z,356.00
2018-07-17T07:28:20.830Z,360.00
2018-07-17T07:29:20.858Z,356.00
2018-07-17T07:30:20.856Z,296.00
2018-07-17T07:31:20.937Z,256.00
2018-07-17T07:32:20.952Z,264.00
2018-07-17T07:33:20.971Z,280.00
2018-07-17T07:34:20.944Z,300.00
2018-07-17T07:35:21.011Z,376.00
2018-07-17T07:36:20.979Z,384.00
2018-07-17T07:37:21.093Z,388.00
2018-07-17T07:38:21.051Z,388.00
2018-07-17T07:39:21.036Z,404.00
2018-07-17T07:40:21.057Z,408.00
2018-07-17T07:41:21.064Z,392.00
2018-07-17T07:42:21.083Z,348.00
2018-07-17T07:43:21.148Z,300.00
2018-07-17T07:44:21.181Z,284.00
2018-07-17T07:45:21.202Z,284.00
2018-07-17T07:46:21.217Z,328.00
2018-07-17T07:47:21.219Z,344.00
2018-07-17T07:48:21.241Z,316.00
2018-07-17T07:49:21.323Z,292.00
2018-07-17T07:50:21.293Z,284.00
2018-07-17T07:51:21.292Z,308.00
2018-07-17T07:52:21.294Z,296.00
2018-07-17T07:53:21.328Z,312.00
2018-07-17T07:54:21.333Z,400.00
2018-07-17T07:55:21.350Z,472.00
2018-07-17T07:56:21.405Z,436.00
2018-07-17T07:57:21.424Z,356.00
2018-07-17T07:58:21.422Z,332.00
2018-07-17T07:59:21.440Z,300.00
2018-07-17T08:00:21.434Z,296.00
2018-07-17T08:01:21.485Z,304.00
2018-07-17T08:02:21.473Z,352.00
2018-07-17T08:03:21.537Z,372.00
2018-07-17T08:04:21.526Z,372.00
2018-07-17T08:05:21.562Z,372.00
2018-07-17T08:06:21.551Z,384.00
2018-07-17T08:07:21.568Z,364.00
2018-07-17T08:08:21.632Z,344.00
2018-07-17T08:09:21.656Z,344.00
2018-07-17T08:10:21.657Z,356.00
2018-07-17T08:11:21.666Z,380.00
2018-07-17T08:12:21.706Z,360.00
2018-07-17T08:13:21.717Z,376.00
2018-07-17T08:14:21.735Z,428.00
2018-07-17T08:15:21.718Z,492.00
2018-07-17T08:16:21.733Z,500.00
2018-07-17T08:17:21.789Z,504.00
2018-07-17T08:18:21.826Z,536.00
2018-07-17T08:19:21.805Z,584.00
2018-07-17T08:20:21.840Z,596.00
2018-07-17T08:21:21.880Z,576.00
2018-07-17T08:22:21.896Z,520.00
2018-07-17T08:23:21.873Z,504.00
2018-07-17T08:24:21.969Z,512.00
2018-07-17T08:25:21.952Z,516.00
2018-07-17T08:26:21.972Z,500.00
2018-07-17T08:27:21.950Z,492.00
2018-07-17T08:28:22.009Z,504.00
2018-07-17T08:29:22.011Z,516.00
2018-07-17T08:30:22.032Z,448.00
2018-07-17T08:31:22.027Z,376.00
2018-07-17T08:32:22.068Z,356.00
2018-07-17T08:33:22.088Z,364.00
2018-07-17T08:34:22.119Z,384.00
2018-07-17T08:35:22.098Z,412.00
2018-07-17T08:36:22.105Z,432.00
2018-07-17T08:37:22.166Z,416.00
2018-07-17T08:38:22.200Z,400.00
2018-07-17T08:39:22.218Z,400.00
2018-07-17T08:40:22.203Z,400.00
2018-07-17T08:41:22.242Z,392.00
2018-07-17T08:42:22.245Z,376.00
2018-07-17T08:43:22.278Z,352.00
2018-07-17T08:44:22.313Z,328.00
2018-07-17T08:45:22.322Z,316.00
2018-07-17T08:46:22.299Z,312.00
2018-07-17T08:47:22.315Z,320.00
2018-07-17T08:48:22.396Z,336.00
2018-07-17T08:49:22.354Z,364.00
2018-07-17T08:50:22.409Z,420.00
2018-07-17T08:51:22.404Z,468.00
2018-07-17T08:52:22.410Z,504.00
2018-07-17T08:53:22.442Z,476.00
2018-07-17T08:54:22.530Z,440.00
2018-07-17T08:55:22.525Z,412.00
2018-07-17T08:56:22.497Z,408.00
2018-07-17T08:57:22.519Z,452.00
2018-07-17T08:58:22.582Z,492.00
2018-07-17T08:59:22.554Z,604.00
2018-07-17T09:00:22.638Z,788.00
2018-07-17T09:01:22.640Z,940.00
2018-07-17T09:02:22.649Z,1076.00
2018-07-17T09:03:22.635Z,1200.00
2018-07-17T09:04:22.655Z,1252.00
2018-07-17T09:05:22.672Z,992.00
2018-07-17T09:06:22.703Z,932.00
2018-07-17T09:07:22.760Z,1012.00
2018-07-17T09:08:22.759Z,844.00
2018-07-17T09:09:22.752Z,648.00
2018-07-17T09:10:22.758Z,568.00
2018-07-17T09:11:22.834Z,568.00
2018-07-17T09:12:22.809Z,596.00
2018-07-17T09:13:22.816Z,600.00
2018-07-17T09:14:22.884Z,604.00
2018-07-17T09:15:22.912Z,636.00
2018-07-17T09:16:22.915Z,712.00
2018-07-17T09:17:22.905Z,692.00
2018-07-17T09:18:22.956Z,596.00
2018-07-17T09:19:22.990Z,556.00
2018-07-17T09:20:23.009Z,524.00
2018-07-17T09:21:23.031Z,468.00
2018-07-17T09:22:23.056Z,416.00
2018-07-17T09:23:23.052Z,340.00
2018-07-17T09:24:23.043Z,344.00
2018-07-17T09:25:23.106Z,436.00
2018-07-17T09:26:23.126Z,556.00
2018-07-17T09:27:23.190Z,700.00
2018-07-17T09:28:23.203Z,736.00
2018-07-17T09:29:23.133Z,680.00
2018-07-17T09:30:23.204Z,644.00
2018-07-17T09:31:23.179Z,632.00
2018-07-17T09:32:23.199Z,608.00
2018-07-17T09:33:23.262Z,520.00
2018-07-17T09:34:23.283Z,448.00
2018-07-17T09:35:23.257Z,432.00
2018-07-17T09:36:23.280Z,428.00
2018-07-17T09:37:23.297Z,404.00
2018-07-17T09:38:23.339Z,352.00
2018-07-17T09:39:23.379Z,304.00
2018-07-17T09:40:23.399Z,252.00
2018-07-17T09:41:23.371Z,204.00
2018-07-17T09:42:23.394Z,180.00
2018-07-17T09:43:23.413Z,180.00
2018-07-17T09:44:23.559Z,172.00
2018-07-17T09:45:23.450Z,160.00
2018-07-17T09:46:23.471Z,148.00
2018-07-17T09:47:23.537Z,132.00
2018-07-17T09:48:23.557Z,108.00
2018-07-17T09:49:23.524Z,104.00
2018-07-17T09:50:23.553Z,104.00
2018-07-17T09:51:23.572Z,108.00
2018-07-17T09:52:23.635Z,112.00
2018-07-17T09:53:23.655Z,116.00
2018-07-17T09:54:23.741Z,116.00
2018-07-17T09:55:23.647Z,96.00
2018-07-17T09:56:23.669Z,108.00
2018-07-17T09:57:23.733Z,140.00
2018-07-17T09:58:23.696Z,160.00
2018-07-17T09:59:23.762Z,184.00
2018-07-17T10:00:23.747Z,208.00
2018-07-17T10:01:23.812Z,232.00
2018-07-17T10:02:23.799Z,244.00
2018-07-17T10:03:23.830Z,260.00
2018-07-17T10:04:23.826Z,304.00
2018-07-17T10:05:23.891Z,348.00
2018-07-17T10:06:23.927Z,372.00
2018-07-17T10:07:23.915Z,388.00
2018-07-17T10:08:23.903Z,380.00
2018-07-17T10:09:24.033Z,364.00
2018-07-17T10:10:23.989Z,380.00
2018-07-17T10:11:23.965Z,436.00
2018-07-17T10:12:24.007Z,484.00
2018-07-17T10:13:24.048Z,532.00
2018-07-17T10:14:24.048Z,568.00
2018-07-17T10:15:24.037Z,624.00
2018-07-17T10:16:24.108Z,704.00
2018-07-17T10:17:24.127Z,996.00
2018-07-17T10:18:24.091Z,888.00
2018-07-17T10:19:24.126Z,656.00
2018-07-17T10:20:24.259Z,732.00
2018-07-17T10:21:24.206Z,792.00
2018-07-17T10:22:24.212Z,912.00
2018-07-17T10:23:24.205Z,1036.00
2018-07-17T10:24:24.265Z,904.00
2018-07-17T10:25:24.230Z,836.00
2018-07-17T10:26:24.329Z,604.00
2018-07-17T10:27:24.327Z,608.00
2018-07-17T10:28:24.347Z,560.00
2018-07-17T10:29:24.318Z,284.00
2018-07-17T10:30:24.341Z,228.00
2018-07-17T10:31:24.404Z,212.00
2018-07-17T10:32:24.381Z,196.00
2018-07-17T10:33:24.409Z,180.00
2018-07-17T10:34:24.449Z,164.00
2018-07-17T10:35:24.484Z,160.00
2018-07-17T10:36:24.504Z,164.00
2018-07-17T10:37:24.469Z,172.00
2018-07-17T10:38:24.532Z,184.00
2018-07-17T10:39:24.564Z,180.00
2018-07-17T10:40:24.582Z,160.00
2018-07-17T10:41:24.557Z,144.00
2018-07-17T10:42:24.578Z,124.00
2018-07-17T10:43:24.646Z,108.00
2018-07-17T10:44:24.613Z,88.00
2018-07-17T10:45:24.638Z,68.00
2018-07-17T10:46:24.670Z,52.00
2018-07-17T10:47:24.721Z,40.00
2018-07-17T10:48:24.745Z,32.00
2018-07-17T10:49:24.743Z,24.00
2018-07-17T10:50:24.762Z,20.00
2018-07-17T10:51:24.758Z,16.00
2018-07-17T10:52:24.774Z,16.00
2018-07-17T10:53:24.801Z,12.00
2018-07-17T10:54:24.819Z,12.00
2018-07-17T10:55:24.882Z,12.00
2018-07-17T10:56:24.903Z,16.00
2018-07-17T10:57:24.888Z,16.00
2018-07-17T10:58:24.897Z,16.00
2018-07-17T10:59:24.965Z,12.00
2018-07-17T11:00:24.979Z,16.00
2018-07-17T11:01:24.957Z,16.00
2018-07-17T11:02:24.978Z,16.00
2018-07-17T11:03:25.030Z,12.00
2018-07-17T11:04:25.004Z,12.00
2018-07-17T11:05:25.024Z,8.00
2018-07-17T11:06:25.090Z,12.00
2018-07-17T11:07:25.120Z,16.00
2018-07-17T11:08:25.194Z,20.00
2018-07-17T11:09:25.131Z,20.00
2018-07-17T11:10:25.166Z,24.00
2018-07-17T11:11:25.183Z,20.00
2018-07-17T11:12:25.207Z,16.00
2018-07-17T11:13:25.228Z,16.00
2018-07-17T11:14:25.261Z,16.00
2018-07-17T11:15:25.246Z,12.00
2018-07-17T11:16:25.282Z,16.00
2018-07-17T11:17:25.318Z,16.00
2018-07-17T11:18:25.337Z,16.00
2018-07-17T11:19:25.309Z,12.00
2018-07-17T11:20:25.378Z,16.00
2018-07-17T11:21:25.395Z,20.00
2018-07-17T11:22:25.371Z,24.00
2018-07-17T11:23:25.401Z,20.00
2018-07-17T11:24:25.469Z,20.00
2018-07-17T11:25:25.430Z,20.00
2018-07-17T11:26:25.449Z,16.00
2018-07-17T11:27:25.468Z,16.00
2018-07-17T11:28:25.489Z,16.00
2018-07-17T11:29:25.552Z,16.00
2018-07-17T11:30:25.530Z,16.00
2018-07-17T11:31:25.548Z,12.00
2018-07-17T11:32:25.590Z,12.00
2018-07-17T11:33:25.614Z,8.00
2018-07-17T11:34:25.650Z,8.00
2018-07-17T11:35:25.648Z,8.00
2018-07-17T11:36:25.671Z,4.00
2018-07-17T11:37:25.698Z,4.00
2018-07-17T11:38:25.725Z,4.00
2018-07-17T11:39:25.744Z,4.00
2018-07-17T11:40:25.744Z,4.00
2018-07-17T11:41:25.763Z,4.00
2018-07-17T11:42:25.757Z,4.00
2018-07-17T11:43:25.822Z,0.00
2018-07-17T11:44:25.839Z,4.00
2018-07-17T11:45:25.824Z,0.00
2018-07-17T11:46:25.845Z,0.00
2018-07-17T11:47:25.852Z,0.00
2018-07-17T11:48:25.904Z,0.00
2018-07-17T11:49:25.881Z,0.00
2018-07-17T11:50:25.897Z,0.00
2018-07-17T11:51:25.973Z,0.00
2018-07-17T11:52:25.971Z,0.00
2018-07-17T11:53:26.176Z,0.00
2018-07-17T11:54:25.986Z,0.00
2018-07-17T11:55:25.998Z,0.00
2018-07-17T11:56:26.097Z,0.00
2018-07-17T11:57:26.096Z,0.00
2018-07-17T11:58:26.091Z,0.00
2018-07-17T11:59:26.302Z,0.00
2018-07-17T12:00:26.100Z,0.00
2018-07-17T12:01:26.149Z,0.00
2018-07-17T12:02:26.140Z,0.00
2018-07-17T12:03:26.202Z,0.00
2018-07-17T12:04:26.220Z,0.00
2018-07-17T12:05:26.262Z,0.00
2018-07-17T12:06:26.216Z,0.00
2018-07-17T12:07:26.238Z,0.00
2018-07-17T12:08:26.239Z,0.00
2018-07-17T12:09:26.293Z,0.00
2018-07-17T12:10:26.333Z,0.00
2018-07-17T12:11:26.297Z,0.00
2018-07-17T12:12:26.323Z,0.00
2018-07-17T12:13:26.377Z,0.00
2018-07-17T12:14:26.428Z,0.00
2018-07-17T12:15:26.432Z,0.00
2018-07-17T12:16:26.430Z,0.00
2018-07-17T12:17:26.415Z,0.00
2018-07-17T12:18:26.476Z,0.00
2018-07-17T12:19:26.500Z,0.00
2018-07-17T12:20:26.685Z,0.00
2018-07-17T12:21:26.530Z,0.00
2018-07-17T12:22:26.522Z,0.00
2018-07-17T12:23:26.602Z,0.00
2018-07-17T12:24:26.596Z,0.00
2018-07-17T12:25:26.616Z,0.00
2018-07-17T12:26:26.617Z,0.00
2018-07-17T12:27:26.637Z,0.00
2018-07-17T12:28:26.632Z,0.00